Time;durP1;ratioP1;P1;durP2;ratioP2;P2;SDS_P1;SDS_P2;PMS_P1;PMS_P2;Temp;Humidity;BMP_temperature;BMP_pressure;BME280_temperature;BME280_humidity;BME280_pressure;Samples;Min_cycle;Max_cycle;Signal;HPM_P1;HPM_P2
2024/04/12 00:01:46;;;;;;;;;;;;;;;16.60;46.67;101680.34;5349841;26;1248;-49
2024/04/12 00:04:15;;;;;;;;;;;;;;;18.06;47.59;101681.06;5350131;26;1283;-49
2024/04/12 00:06:42;;;;;;;;;;;;;;;17.12;48.56;101670.13;5350516;26;1112;-45
2024/04/12 00:09:09;;;;;;;;;;;;;;;16.97;47.85;101678.16;5349903;26;1358;-49
2024/04/12 00:11:38;;;;;;;;;;;;;;;17.23;47.99;101674.66;5349662;26;1237;-49
2024/04/12 00:14:03;;;;;;;;;;;;;;;17.36;48.66;101678.94;5368762;26;1191;-49
2024/04/12 00:16:29;;;;;;;;;;;;;;;16.99;48.24;101676.81;5353850;26;1868;-49
2024/04/12 00:19:07;;;;;;;;;;;;;;;16.77;47.77;101674.00;5349748;26;1120;-51
2024/04/12 00:21:37;;;;;;;;;;;;;;;16.75;46.96;101671.53;5349794;26;1152;-48
2024/04/12 00:24:06;;;;;;;;;;;;;;;17.55;47.62;101671.16;5346817;26;2674;-48
2024/04/12 00:26:31;;;;;;;;;;;;;;;17.29;48.57;101664.53;5342923;26;1711;-46
2024/04/12 00:28:58;;;;;;;;;;;;;;;16.91;48.64;101660.78;5342575;26;1433;-47
2024/04/12 00:31:26;;;;;;;;;;;;;;;16.74;47.56;101658.03;5339710;26;1160;-47
2024/04/12 00:33:55;;;;;;;;;;;;;;;16.65;47.30;101657.66;5342803;26;1204;-45
2024/04/12 00:36:24;;;;;;;;;;;;;;;16.72;46.96;101652.81;5346376;26;1833;-48
2024/04/12 00:38:49;;;;;;;;;;;;;;;17.78;48.01;101644.44;5349583;26;1171;-48
2024/04/12 00:41:15;;;;;;;;;;;;;;;17.02;48.73;101646.06;5349103;26;1469;-48
2024/04/12 00:43:53;;;;;;;;;;;;;;;16.88;47.74;101640.13;5349142;26;1171;-48
2024/04/12 00:46:23;;;;;;;;;;;;;;;17.09;48.14;101629.41;5349208;26;1311;-50
2024/04/12 00:48:51;;;;;;;;;;;;;;;17.34;48.59;101637.13;5348830;26;1168;-49
2024/04/12 00:51:17;;;;;;;;;;;;;;;16.94;48.30;101627.28;5349953;26;1129;-51
2024/04/12 00:53:46;;;;;;;;;;;;;;;18.02;47.64;101631.22;5348834;26;2661;-50
2024/04/12 00:56:13;;;;;;;;;;;;;;;17.10;48.89;101634.66;5349041;26;1877;-46
2024/04/12 00:58:41;;;;;;;;;;;;;;;16.91;48.44;101641.53;5348630;26;1309;-49
2024/04/12 01:01:16;;;;;;;;;;;;;;;16.79;47.84;101640.78;5349137;26;1148;-50
2024/04/12 01:03:46;;;;;;;;;;;;;;;17.11;48.02;101646.50;5349010;26;1164;-52
2024/04/12 01:06:18;;;;;;;;;;;;;;;17.56;48.69;101641.78;5341254;26;1332;-48
2024/04/12 01:08:44;;;;;;;;;;;;;;;17.07;48.62;101643.41;5332423;26;1541;-56
2024/04/12 01:11:13;;;;;;;;;;;;;;;16.90;47.83;101635.22;5342239;26;1629;-50
2024/04/12 01:13:41;;;;;;;;;;;;;;;16.80;47.34;101636.97;5334046;26;1756;-52
2024/04/12 01:16:07;;;;;;;;;;;;;;;17.70;48.17;101633.94;5347764;26;1951;-53
2024/04/12 01:18:32;;;;;;;;;;;;;;;17.14;48.57;101636.88;5348447;26;1836;-50
2024/04/12 01:21:09;;;;;;;;;;;;;;;16.74;48.60;101639.63;5318407;26;1056;-49
2024/04/12 01:23:40;;;;;;;;;;;;;;;17.19;48.45;101634.19;5349179;26;1184;-51
2024/04/12 01:26:09;;;;;;;;;;;;;;;17.14;48.93;101639.63;5347073;26;2879;-51
2024/04/12 01:28:38;;;;;;;;;;;;;;;16.90;48.19;101629.72;5339088;26;1223;-45
2024/04/12 01:31:03;;;;;;;;;;;;;;;16.77;47.70;101633.66;5349009;26;1176;-49
2024/04/12 01:33:31;;;;;;;;;;;;;;;18.01;47.56;101639.75;5349129;26;1129;-49
2024/04/12 01:36:04;;;;;;;;;;;;;;;17.10;48.86;101631.06;5349175;26;1065;-46
2024/04/12 01:38:31;;;;;;;;;;;;;;;16.92;48.10;101634.97;5351805;26;1854;-52
2024/04/12 01:40:57;;;;;;;;;;;;;;;16.69;47.69;101631.34;5351643;26;1490;-52
2024/04/12 01:43:26;;;;;;;;;;;;;;;16.65;47.24;101634.84;5351102;26;1724;-52
2024/04/12 01:45:55;;;;;;;;;;;;;;;16.58;46.85;101635.03;5351398;26;1235;-49
2024/04/12 01:48:23;;;;;;;;;;;;;;;16.61;46.39;101626.28;5351188;26;1248;-51
2024/04/12 01:50:51;;;;;;;;;;;;;;;17.55;47.29;101629.09;5351797;26;1221;-52
2024/04/12 01:53:21;;;;;;;;;;;;;;;17.01;48.71;101622.47;5351361;26;1244;-48
2024/04/12 01:55:50;;;;;;;;;;;;;;;16.74;48.17;101622.34;5352084;26;2934;-49
2024/04/12 01:58:19;;;;;;;;;;;;;;;17.63;47.90;101625.88;5351545;26;1858;-53
2024/04/12 02:00:45;;;;;;;;;;;;;;;16.91;48.74;101623.16;5352078;26;1212;-48
2024/04/12 02:03:13;;;;;;;;;;;;;;;16.76;48.10;101620.19;5352382;26;1160;-48
2024/04/12 02:05:38;;;;;;;;;;;;;;;17.87;47.80;101620.88;5352851;26;1208;-51
2024/04/12 02:08:16;;;;;;;;;;;;;;;17.09;48.75;101618.41;5352436;26;1125;-50
2024/04/12 02:10:42;;;;;;;;;;;;;;;16.84;48.17;101616.97;5352583;26;1275;-53
2024/04/12 02:13:10;;;;;;;;;;;;;;;16.75;47.63;101624.00;5352125;26;1184;-51
2024/04/12 02:15:36;;;;;;;;;;;;;;;16.55;47.60;101628.13;5352056;26;1369;-49
2024/04/12 02:18:02;;;;;;;;;;;;;;;17.60;47.98;101618.16;5329429;26;1827;-54
2024/04/12 02:20:34;;;;;;;;;;;;;;;17.25;48.87;101622.16;5351867;26;1406;-47
2024/04/12 02:23:06;;;;;;;;;;;;;;;16.86;48.67;101624.97;5352161;26;1362;-50
2024/04/12 02:25:32;;;;;;;;;;;;;;;16.74;47.99;101639.63;5343986;26;1162;-50
2024/04/12 02:27:57;;;;;;;;;;;;;;;16.64;47.55;101628.53;5351219;26;1783;-50
2024/04/12 02:30:23;;;;;;;;;;;;;;;16.79;47.74;101627.91;5351354;26;1194;-46
2024/04/12 02:32:50;;;;;;;;;;;;;;;17.39;48.55;101634.44;5350888;26;1887;-51
2024/04/12 02:35:17;;;;;;;;;;;;;;;16.84;48.69;101629.88;5351668;26;1203;-48
2024/04/12 02:37:43;;;;;;;;;;;;;;;16.75;47.98;101635.81;5351370;26;1840;-51
2024/04/12 02:40:15;;;;;;;;;;;;;;;16.68;47.42;101637.09;5351877;26;1287;-46
2024/04/12 02:42:43;;;;;;;;;;;;;;;16.52;47.21;101627.78;5351385;26;1208;-51
2024/04/12 02:45:12;;;;;;;;;;;;;;;17.59;48.05;101628.31;5352018;26;1303;-51
2024/04/12 02:47:41;;;;;;;;;;;;;;;16.83;48.71;101631.81;5350604;26;1287;-52
2024/04/12 02:50:10;;;;;;;;;;;;;;;16.67;47.85;101629.94;5350209;26;1382;-47
2024/04/12 02:52:36;;;;;;;;;;;;;;;16.64;47.48;101634.00;5348267;26;1060;-55
2024/04/12 02:55:02;;;;;;;;;;;;;;;17.31;48.21;101636.81;5337787;26;2055;-48
2024/04/12 02:57:29;;;;;;;;;;;;;;;16.82;48.13;101652.13;5348382;26;1839;-53
2024/04/12 02:59:54;;;;;;;;;;;;;;;16.63;47.72;101648.81;5350825;26;1262;-52
2024/04/12 03:02:20;;;;;;;;;;;;;;;16.47;47.63;101649.69;5348567;26;1611;-53
2024/04/12 03:04:46;;;;;;;;;;;;;;;17.72;47.89;101643.56;5345934;26;1441;-54
2024/04/12 03:07:11;;;;;;;;;;;;;;;16.98;48.79;101644.94;5351364;26;1359;-58
2024/04/12 03:09:40;;;;;;;;;;;;;;;16.82;48.02;101656.78;5351555;26;1208;-55
2024/04/12 03:12:06;;;;;;;;;;;;;;;17.44;48.44;101648.22;5350764;26;1358;-55
2024/04/12 03:14:32;;;;;;;;;;;;;;;16.89;48.71;101643.72;5351161;26;1113;-55
2024/04/12 03:16:57;;;;;;;;;;;;;;;16.81;47.90;101644.13;5351454;26;1867;-52
2024/04/12 03:19:26;;;;;;;;;;;;;;;17.53;48.34;101645.00;5351324;26;1260;-57
2024/04/12 03:21:52;;;;;;;;;;;;;;;16.95;48.61;101637.19;5349318;26;1614;-58
2024/04/12 03:24:17;;;;;;;;;;;;;;;16.79;47.95;101649.03;5350476;26;1516;-56
2024/04/12 03:26:43;;;;;;;;;;;;;;;17.37;48.44;101653.09;5351094;26;1398;-57
2024/04/12 03:29:11;;;;;;;;;;;;;;;17.09;48.58;101654.97;5337628;26;1625;-57
2024/04/12 03:31:40;;;;;;;;;;;;;;;16.73;48.35;101648.97;5349616;26;1789;-55
2024/04/12 03:34:08;;;;;;;;;;;;;;;16.68;47.70;101651.66;5348815;26;1580;-56
2024/04/12 03:39:24;;;;;;;;;;;;;;;16.95;48.75;101655.63;5330442;26;1529;-59
2024/04/12 03:41:56;;;;;;;;;;;;;;;16.85;47.88;101656.28;5337884;26;1267;-58
2024/04/12 03:44:30;;;;;;;;;;;;;;;16.64;47.60;101655.97;5348122;26;1711;-59
2024/04/12 03:46:57;;;;;;;;;;;;;;;16.67;47.19;101655.47;5351092;26;1235;-58
2024/04/12 03:49:23;;;;;;;;;;;;;;;17.67;48.10;101660.03;5350294;26;1056;-57
2024/04/12 03:51:49;;;;;;;;;;;;;;;17.00;48.55;101664.75;5350246;26;1294;-58
2024/04/12 03:54:18;;;;;;;;;;;;;;;16.67;48.45;101663.72;5350549;26;1117;-57
2024/04/12 03:56:52;;;;;;;;;;;;;;;17.93;48.17;101661.13;5350633;26;1826;-60
2024/04/12 03:59:18;;;;;;;;;;;;;;;17.06;49.00;101655.47;5349240;26;1260;-58
2024/04/12 04:01:47;;;;;;;;;;;;;;;16.95;48.43;101659.19;5350672;26;1048;-58
2024/04/12 04:04:19;;;;;;;;;;;;;;;17.90;48.59;101663.53;5350616;26;1379;-59
2024/04/12 04:06:45;;;;;;;;;;;;;;;18.05;48.53;101671.97;5346347;26;2878;-58
2024/04/12 04:09:32;;;;;;;;;;;;;;;17.69;49.21;101668.03;5349586;26;2611;-59
2024/04/12 04:11:58;;;;;;;;;;;;;;;17.34;50.02;101663.78;5330684;26;2338;-58
2024/04/12 04:14:25;;;;;;;;;;;;;;;17.15;50.72;101668.78;5348779;26;2083;-58
2024/04/12 04:16:52;;;;;;;;;;;;;;;17.02;51.02;101675.47;5348878;26;2217;-58
2024/04/12 04:19:19;;;;;;;;;;;;;;;16.86;51.51;101672.50;5348127;26;2141;-58
2024/04/12 04:21:46;;;;;;;;;;;;;;;16.66;52.04;101672.19;5349150;26;2075;-58
2024/04/12 04:24:11;;;;;;;;;;;;;;;16.68;51.88;101668.13;5349293;26;1374;-58
2024/04/12 04:26:37;;;;;;;;;;;;;;;16.51;52.46;101678.28;5349625;26;1380;-58
2024/04/12 04:29:09;;;;;;;;;;;;;;;16.47;52.54;101682.66;5349311;26;1168;-58
2024/04/12 04:31:47;;;;;;;;;;;;;;;16.39;52.82;101684.69;5349307;26;1254;-58
2024/04/12 04:34:13;;;;;;;;;;;;;;;16.28;53.00;101685.63;5350259;26;1532;-57
2024/04/12 04:36:42;;;;;;;;;;;;;;;16.25;53.07;101691.63;5348761;26;1841;-58
2024/04/12 04:39:08;;;;;;;;;;;;;;;16.15;53.13;101697.75;5348644;26;1229;-58
2024/04/12 04:41:33;;;;;;;;;;;;;;;16.07;53.49;101696.28;5349400;26;1128;-58
2024/04/12 04:44:02;;;;;;;;;;;;;;;16.02;53.53;101693.44;5349474;26;1354;-59
2024/04/12 04:46:27;;;;;;;;;;;;;;;16.12;53.53;101698.25;5349590;26;1172;-59
2024/04/12 04:48:56;;;;;;;;;;;;;;;17.58;50.39;101703.66;5348880;26;1137;-59
2024/04/12 04:51:24;;;;;;;;;;;;;;;16.80;52.25;101703.72;5350104;26;2646;-59
2024/04/12 04:53:53;;;;;;;;;;;;;;;16.52;52.94;101707.41;5352600;26;1144;-59
2024/04/12 04:56:24;;;;;;;;;;;;;;;16.34;53.45;101706.59;5349431;26;1956;-59
2024/04/12 04:58:50;;;;;;;;;;;;;;;16.10;53.97;101705.06;5349047;26;1248;-58
2024/04/12 05:01:17;;;;;;;;;;;;;;;16.10;54.12;101714.13;5349014;26;1221;-60
2024/04/12 05:03:43;;;;;;;;;;;;;;;16.10;53.88;101708.63;5348691;26;1223;-57
2024/04/12 05:06:08;;;;;;;;;;;;;;;17.13;51.95;101713.00;5348024;26;1279;-60
2024/04/12 05:08:35;;;;;;;;;;;;;;;17.27;51.08;101705.22;5348614;26;1441;-59
2024/04/12 05:11:07;;;;;;;;;;;;;;;16.56;53.21;101712.16;5349335;26;1322;-58
2024/04/12 05:13:38;;;;;;;;;;;;;;;16.45;53.54;101712.25;5349861;26;1328;-59
2024/04/12 05:16:11;;;;;;;;;;;;;;;16.30;53.97;101708.19;5351298;26;1386;-57
2024/04/12 05:18:37;;;;;;;;;;;;;;;16.24;53.95;101717.38;5351741;26;1837;-59
2024/04/12 05:21:03;;;;;;;;;;;;;;;16.11;54.21;101701.25;5352228;26;1282;-59
2024/04/12 05:23:29;;;;;;;;;;;;;;;16.06;54.15;101700.09;5373681;26;2768;-59
2024/04/12 05:25:54;;;;;;;;;;;;;;;16.13;54.14;101704.56;5351769;26;1244;-60
2024/04/12 05:28:20;;;;;;;;;;;;;;;17.57;51.09;101692.91;5352354;26;1305;-59
2024/04/12 05:30:46;;;;;;;;;;;;;;;17.08;52.02;101689.03;5351408;26;1358;-60
2024/04/12 05:33:16;;;;;;;;;;;;;;;16.67;53.33;101710.41;5351792;26;1301;-60
2024/04/12 05:35:41;;;;;;;;;;;;;;;16.40;54.07;101705.59;5352493;26;1300;-60
2024/04/12 05:38:07;;;;;;;;;;;;;;;16.27;54.14;101699.59;5351129;26;1829;-60
2024/04/12 05:40:34;;;;;;;;;;;;;;;16.15;54.51;101700.50;5351062;26;1251;-58
2024/04/12 05:43:00;;;;;;;;;;;;;;;16.13;54.38;101708.16;5351992;26;1449;-59
2024/04/12 05:45:27;;;;;;;;;;;;;;;16.38;54.28;101701.44;5351342;26;1300;-59
2024/04/12 05:47:54;;;;;;;;;;;;;;;17.82;50.76;101708.03;5350979;26;1284;-62
2024/04/12 05:50:25;;;;;;;;;;;;;;;17.04;52.54;101709.03;5351466;26;1166;-60
2024/04/12 05:52:52;;;;;;;;;;;;;;;16.67;53.56;101702.16;5368876;26;2873;-59
2024/04/12 05:55:19;;;;;;;;;;;;;;;16.51;54.02;101712.09;5351377;26;1394;-59
2024/04/12 05:57:47;;;;;;;;;;;;;;;16.34;54.25;101717.56;5350695;26;1833;-59
2024/04/12 06:00:12;;;;;;;;;;;;;;;16.20;54.59;101708.84;5351349;26;1418;-61
2024/04/12 06:02:43;;;;;;;;;;;;;;;16.12;54.93;101711.13;5350156;26;1353;-59
2024/04/12 06:05:09;;;;;;;;;;;;;;;16.12;54.54;101711.13;5351865;26;1249;-59
2024/04/12 06:07:35;;;;;;;;;;;;;;;15.89;55.03;101711.03;5349336;26;1506;-59
2024/04/12 06:10:01;;;;;;;;;;;;;;;16.67;54.18;101726.03;5350900;26;1291;-59
2024/04/12 06:12:33;;;;;;;;;;;;;;;17.70;51.34;101722.78;5351352;26;1149;-59
2024/04/12 06:15:03;;;;;;;;;;;;;;;16.85;53.50;101725.78;5351328;26;1084;-59
2024/04/12 06:17:29;;;;;;;;;;;;;;;16.48;54.32;101711.75;5351448;26;1835;-59
2024/04/12 06:19:59;;;;;;;;;;;;;;;16.39;54.73;101719.56;5351169;26;1218;-59
2024/04/12 06:22:26;;;;;;;;;;;;;;;16.23;54.91;101721.22;5350741;26;2788;-59
2024/04/12 06:24:51;;;;;;;;;;;;;;;16.19;55.00;101723.63;5350936;26;1276;-55
2024/04/12 06:27:29;;;;;;;;;;;;;;;16.15;55.00;101718.88;5350405;26;1222;-56
2024/04/12 06:30:00;;;;;;;;;;;;;;;17.34;52.74;101725.09;5351108;26;1240;-58
2024/04/12 06:32:26;;;;;;;;;;;;;;;17.17;52.88;101727.09;5351757;26;1196;-60
2024/04/12 06:34:52;;;;;;;;;;;;;;;16.69;54.18;101727.47;5350826;26;1329;-59
2024/04/12 06:37:21;;;;;;;;;;;;;;;16.46;54.61;101712.00;5350630;26;1837;-59
2024/04/12 06:39:49;;;;;;;;;;;;;;;16.41;54.53;101718.25;5351207;26;1244;-58
2024/04/12 06:42:17;;;;;;;;;;;;;;;16.20;54.72;101717.06;5351130;26;1101;-58
2024/04/12 06:44:48;;;;;;;;;;;;;;;16.09;55.27;101709.75;5351353;26;1113;-58
2024/04/12 06:47:18;;;;;;;;;;;;;;;16.00;55.46;101711.22;5351076;26;1172;-57
2024/04/12 06:49:44;;;;;;;;;;;;;;;15.94;55.14;101710.28;5350565;26;1314;-58
2024/04/12 06:52:10;;;;;;;;;;;;;;;16.76;54.21;101719.88;5350970;26;2799;-58
2024/04/12 06:54:36;;;;;;;;;;;;;;;17.84;51.50;101725.09;5350872;26;1029;-58
2024/04/12 06:57:04;;;;;;;;;;;;;;;16.92;53.74;101711.91;5350658;26;1833;-56
2024/04/12 06:59:35;;;;;;;;;;;;;;;16.55;54.63;101718.75;5350878;26;1113;-59
2024/04/12 07:02:02;;;;;;;;;;;;;;;16.46;54.70;101714.75;5350342;26;1110;-58
2024/04/12 07:04:28;;;;;;;;;;;;;;;16.28;55.05;101715.81;5350881;26;1219;-58
2024/04/12 07:06:56;;;;;;;;;;;;;;;16.23;55.15;101708.34;5350138;26;1419;-58
2024/04/12 07:09:23;;;;;;;;;;;;;;;16.07;55.29;101715.47;5363659;26;1176;-58
2024/04/12 07:11:51;;;;;;;;;;;;;;;16.88;54.22;101721.69;5351220;26;1099;-58
2024/04/12 07:14:23;;;;;;;;;;;;;;;17.27;53.04;101717.03;5350463;26;1256;-58
2024/04/12 07:16:48;;;;;;;;;;;;;;;16.58;54.94;101718.22;5350476;26;1863;-59
2024/04/12 07:19:18;;;;;;;;;;;;;;;16.39;55.22;101714.91;5350682;26;1347;-60
2024/04/12 07:21:44;;;;;;;;;;;;;;;16.20;55.41;101711.56;5350930;26;2516;-60
2024/04/12 07:24:15;;;;;;;;;;;;;;;16.18;55.43;101715.66;5350708;26;1120;-58
2024/04/12 07:26:41;;;;;;;;;;;;;;;16.05;55.63;101714.88;5348894;26;1323;-58
2024/04/12 07:29:06;;;;;;;;;;;;;;;15.97;55.67;101715.28;5350049;26;1246;-59
2024/04/12 07:31:36;;;;;;;;;;;;;;;15.95;55.74;101722.06;5348497;26;1272;-59
2024/04/12 07:34:02;;;;;;;;;;;;;;;17.18;53.53;101721.31;5336025;26;1177;-60
2024/04/12 07:36:30;;;;;;;;;;;;;;;17.41;52.92;101717.47;5341823;26;1859;-59
2024/04/12 07:39:02;;;;;;;;;;;;;;;16.72;54.79;101726.97;5349644;26;1092;-57
2024/04/12 07:41:30;;;;;;;;;;;;;;;16.52;55.09;101723.88;5350520;26;1123;-57
2024/04/12 07:43:55;;;;;;;;;;;;;;;16.26;55.55;101715.25;5348618;26;1196;-57
2024/04/12 07:46:27;;;;;;;;;;;;;;;16.15;55.64;101713.41;5348486;26;1263;-57
2024/04/12 07:48:57;;;;;;;;;;;;;;;16.10;55.76;101732.50;5350346;26;1168;-58
2024/04/12 07:51:28;;;;;;;;;;;;;;;16.02;55.89;101723.59;5349696;26;2638;-57
2024/04/12 07:53:53;;;;;;;;;;;;;;;16.89;54.62;101724.22;5348324;26;1231;-58
2024/04/12 07:56:21;;;;;;;;;;;;;;;17.74;52.42;101734.94;5350479;26;1818;-58
2024/04/12 07:59:10;;;;;;;;;;;;;;;16.91;54.40;101726.72;5350163;26;1587;-57
2024/04/12 08:01:32;;;;;;;;;;;;;;;16.55;55.31;101726.97;5346448;26;1441;-58
2024/04/12 08:04:05;;;;;;;;;;;;;;;16.44;55.27;101725.16;5348359;26;1229;-58
2024/04/12 08:06:36;;;;;;;;;;;;;;;16.33;55.38;101723.31;5349088;26;1234;-59
2024/04/12 08:09:05;;;;;;;;;;;;;;;16.20;55.49;101713.47;5349664;26;1479;-58
2024/04/12 08:11:35;;;;;;;;;;;;;;;16.16;55.60;101723.28;5348274;26;1324;-58
2024/04/12 08:14:08;;;;;;;;;;;;;;;16.01;55.87;101712.88;5348806;26;1320;-58
2024/04/12 08:16:37;;;;;;;;;;;;;;;16.22;55.75;101714.06;5345818;26;1854;-58
2024/04/12 08:19:03;;;;;;;;;;;;;;;17.69;52.78;101710.09;5349320;26;1316;-58
2024/04/12 08:21:31;;;;;;;;;;;;;;;17.06;54.23;101717.84;5349621;26;2759;-61
2024/04/12 08:23:56;;;;;;;;;;;;;;;16.64;55.11;101715.56;5349702;26;1228;-58
2024/04/12 08:26:27;;;;;;;;;;;;;;;16.41;55.47;101720.13;5349456;26;1173;-58
2024/04/12 08:28:53;;;;;;;;;;;;;;;16.30;55.74;101721.91;5347896;26;1294;-57
2024/04/12 08:31:19;;;;;;;;;;;;;;;16.55;56.15;101728.88;5347291;26;1263;-57
2024/04/12 08:33:45;;;;;;;;;;;;;;;16.38;56.40;101728.88;5348843;26;1555;-58
2024/04/12 08:36:14;;;;;;;;;;;;;;;16.22;56.54;101731.34;5348249;26;1119;-58
2024/04/12 08:38:54;;;;;;;;;;;;;;;16.07;56.49;101717.38;5348593;26;1826;-58
2024/04/12 08:41:24;;;;;;;;;;;;;;;16.14;56.50;101717.22;5329808;26;1109;-58
2024/04/12 08:43:54;;;;;;;;;;;;;;;17.50;54.49;101704.13;5349759;26;1160;-58
2024/04/12 08:46:25;;;;;;;;;;;;;;;17.07;55.45;101722.28;5350847;26;1223;-58
2024/04/12 08:48:50;;;;;;;;;;;;;;;16.64;56.08;101716.41;5352432;26;1109;-57
2024/04/12 08:51:21;;;;;;;;;;;;;;;16.45;56.43;101713.06;5352578;26;1044;-58
2024/04/12 08:53:48;;;;;;;;;;;;;;;16.29;56.57;101708.44;5318867;26;1324;-58
2024/04/12 08:56:17;;;;;;;;;;;;;;;16.19;56.50;101703.59;5316478;27;1168;-59
2024/04/12 08:58:48;;;;;;;;;;;;;;;16.15;56.34;101703.25;5348982;26;2065;-58
2024/04/12 09:01:13;;;;;;;;;;;;;;;16.12;56.12;101697.41;5352070;26;1347;-59
2024/04/12 09:03:40;;;;;;;;;;;;;;;16.05;56.44;101692.09;5323993;26;1271;-58
2024/04/12 09:06:06;;;;;;;;;;;;;;;16.05;56.50;101697.59;5316066;26;1361;-58
2024/04/12 09:08:33;;;;;;;;;;;;;;;17.40;54.71;101693.00;5350164;26;1431;-58
2024/04/12 09:10:59;;;;;;;;;;;;;;;17.40;54.53;101688.34;5352423;26;1387;-58
2024/04/12 09:13:27;;;;;;;;;;;;;;;16.81;55.93;101707.31;5350029;26;1184;-57
2024/04/12 09:15:53;;;;;;;;;;;;;;;16.55;56.29;101696.78;5348273;26;1504;-57
2024/04/12 09:18:26;;;;;;;;;;;;;;;16.52;56.16;101697.28;5350845;26;1863;-58
2024/04/12 09:21:01;;;;;;;;;;;;;;;16.36;56.40;101693.44;5351737;26;1302;-59
2024/04/12 09:23:34;;;;;;;;;;;;;;;16.21;56.44;101687.69;5348438;26;2983;-59
2024/04/12 09:26:07;;;;;;;;;;;;;;;16.14;56.29;101684.28;5351638;26;1438;-58
2024/04/12 09:28:37;;;;;;;;;;;;;;;16.14;56.16;101684.28;5351373;26;1097;-59
2024/04/12 09:33:50;;;;;;;;;;;;;;;16.79;56.18;101690.22;5351561;26;1280;-59
2024/04/12 09:36:39;;;;;;;;;;;;;;;17.61;54.21;101691.31;5351653;26;1188;-58
2024/04/12 09:39:14;;;;;;;;;;;;;;;16.76;56.15;101681.44;5323294;26;1288;-58
2024/04/12 09:41:56;;;;;;;;;;;;;;;16.51;56.58;101678.28;5323085;26;1176;-58
2024/04/12 09:44:27;;;;;;;;;;;;;;;16.42;56.65;101686.13;5349601;26;1323;-58
2024/04/12 10:39:44;;;;;;;;;;;;;;;16.23;56.65;101672.66;5319891;26;1302;-57
2024/04/12 10:42:11;;;;;;;;;;;;;;;16.12;56.71;101683.69;5345830;26;1276;-57
2024/04/12 10:44:36;;;;;;;;;;;;;;;16.14;56.80;101678.81;5351215;26;1215;-58
2024/04/12 10:47:04;;;;;;;;;;;;;;;16.10;56.46;101672.16;5350303;26;1262;-58
2024/04/12 10:49:30;;;;;;;;;;;;;;;16.45;56.68;101682.03;5340328;26;1283;-58
2024/04/12 10:51:56;;;;;;;;;;;;;;;17.72;54.41;101676.56;5340113;26;2662;-59
2024/04/12 10:54:23;;;;;;;;;;;;;;;16.97;56.13;101683.66;5350876;26;1595;-59
2024/04/12 10:56:49;;;;;;;;;;;;;;;16.63;56.71;101680.94;5349422;26;1833;-59
2024/04/12 10:59:26;;;;;;;;;;;;;;;16.49;56.80;101677.72;5341801;26;1521;-59
2024/04/12 11:01:59;;;;;;;;;;;;;;;16.37;56.78;101686.88;5342472;26;1214;-58
2024/04/12 11:04:28;;;;;;;;;;;;;;;16.22;56.96;101670.97;5341424;26;1277;-58
2024/04/12 11:06:54;;;;;;;;;;;;;;;16.22;56.62;101679.22;5338774;26;1410;-58
2024/04/12 11:09:30;;;;;;;;;;;;;;;16.16;56.53;101676.63;5333921;26;1479;-58
2024/04/12 11:12:00;;;;;;;;;;;;;;;16.14;56.66;101671.41;5330951;26;1366;-58
2024/04/12 11:14:27;;;;;;;;;;;;;;;16.02;56.76;101671.47;5340993;26;1379;-59
2024/04/12 11:31:14;;;;;;;;;;;;;;;16.36;56.76;101657.75;5329019;26;1161;-58
2024/04/12 11:33:43;;;;;;;;;;;;;;;16.21;56.77;101646.53;5348354;26;1160;-59
2024/04/12 11:36:10;;;;;;;;;;;;;;;16.21;56.74;101646.53;5335829;26;1280;-59
2024/04/12 11:38:39;;;;;;;;;;;;;;;16.17;56.49;101645.38;5317887;26;1837;-59
2024/04/12 11:41:05;;;;;;;;;;;;;;;16.12;56.48;101637.91;5339532;26;1182;-59
2024/04/12 11:43:34;;;;;;;;;;;;;;;16.10;56.45;101644.72;5339186;26;1203;-59
2024/04/12 11:46:01;;;;;;;;;;;;;;;17.07;55.70;101635.16;5327458;26;1271;-58
2024/04/12 11:48:31;;;;;;;;;;;;;;;17.78;54.19;101638.94;5341649;26;1303;-58
2024/04/12 11:50:57;;;;;;;;;;;;;;;16.99;55.86;101632.84;5333326;26;1462;-59
2024/04/12 11:53:23;;;;;;;;;;;;;;;16.76;56.53;101637.47;5335063;26;2849;-60
2024/04/12 11:55:48;;;;;;;;;;;;;;;16.53;56.83;101637.69;5342153;26;1216;-58
2024/04/12 11:58:14;;;;;;;;;;;;;;;16.45;56.70;101629.88;5350018;26;1865;-57
2024/04/12 12:00:41;;;;;;;;;;;;;;;16.32;56.73;101626.41;5348250;26;1194;-58
2024/04/12 12:03:06;;;;;;;;;;;;;;;16.28;56.76;101627.16;5347732;26;1272;-60
2024/04/12 12:05:37;;;;;;;;;;;;;;;16.17;56.77;101624.28;5348187;26;1346;-59
2024/04/12 12:08:04;;;;;;;;;;;;;;;16.15;56.72;101618.19;5328742;26;1519;-59
2024/04/12 12:10:34;;;;;;;;;;;;;;;16.11;56.71;101629.91;5343871;26;1412;-58
2024/04/12 12:13:01;;;;;;;;;;;;;;;16.06;56.61;101625.16;5335218;26;1379;-57
2024/04/12 12:15:26;;;;;;;;;;;;;;;16.83;56.19;101619.97;5335916;26;1272;-59
2024/04/12 12:17:52;;;;;;;;;;;;;;;17.65;54.67;101622.88;5334325;26;1838;-57
2024/04/12 12:20:18;;;;;;;;;;;;;;;16.84;56.48;101616.97;5341517;26;1387;-57
2024/04/12 12:22:47;;;;;;;;;;;;;;;16.58;56.87;101624.06;5358712;26;2586;-59
2024/04/12 12:25:13;;;;;;;;;;;;;;;16.50;56.83;101621.75;5349512;26;1188;-58
2024/04/12 12:27:39;;;;;;;;;;;;;;;16.33;56.99;101624.50;5349750;26;1140;-58
2024/04/12 12:30:13;;;;;;;;;;;;;;;16.24;56.91;101633.16;5348997;26;1081;-58
2024/04/12 12:32:40;;;;;;;;;;;;;;;16.16;56.88;101633.56;5349901;26;1113;-57
2024/04/12 12:35:06;;;;;;;;;;;;;;;16.11;56.69;101633.47;5349386;26;1243;-56
2024/04/12 12:37:32;;;;;;;;;;;;;;;16.06;56.70;101628.75;5349480;26;1825;-59
2024/04/12 12:40:01;;;;;;;;;;;;;;;15.94;56.88;101630.75;5348345;26;1475;-57
2024/04/12 12:42:26;;;;;;;;;;;;;;;17.24;55.54;101631.53;5349540;26;1371;-57
2024/04/12 12:44:52;;;;;;;;;;;;;;;17.34;55.45;101630.81;5349279;26;1238;-60
2024/04/12 12:47:20;;;;;;;;;;;;;;;16.77;56.65;101630.91;5349480;26;1262;-57
2024/04/12 12:49:53;;;;;;;;;;;;;;;16.55;56.93;101630.03;5349284;26;1252;-57
2024/04/12 12:52:18;;;;;;;;;;;;;;;16.42;56.81;101629.31;5349091;26;2789;-57
2024/04/12 12:54:44;;;;;;;;;;;;;;;16.30;56.67;101628.59;5349041;26;1251;-58
2024/04/12 12:57:11;;;;;;;;;;;;;;;16.13;56.98;101630.50;5348537;26;1951;-59
2024/04/12 12:59:46;;;;;;;;;;;;;;;16.17;56.48;101618.78;5347897;26;1520;-58
2024/04/12 13:02:14;;;;;;;;;;;;;;;16.22;57.06;101618.03;5349329;26;1312;-57
2024/04/12 13:04:43;;;;;;;;;;;;;;;17.62;54.83;101618.72;5348561;26;1211;-57
2024/04/12 13:07:09;;;;;;;;;;;;;;;17.03;55.89;101614.78;5349124;26;1164;-56
2024/04/12 13:09:35;;;;;;;;;;;;;;;16.71;56.40;101622.84;5348802;26;1472;-58
2024/04/12 13:12:04;;;;;;;;;;;;;;;16.47;56.56;101612.09;5349041;26;1258;-57
2024/04/12 13:14:29;;;;;;;;;;;;;;;16.37;56.64;101612.78;5343956;26;1331;-58
2024/04/12 13:16:55;;;;;;;;;;;;;;;16.25;56.65;101599.13;5347835;26;1879;-59
2024/04/12 13:19:21;;;;;;;;;;;;;;;16.22;56.33;101598.81;5317046;26;1310;-58
2024/04/12 13:21:48;;;;;;;;;;;;;;;16.10;56.46;101600.81;5344958;26;2685;-57
2024/04/12 13:24:14;;;;;;;;;;;;;;;17.21;56.08;101610.88;5346623;26;1224;-59
2024/04/12 13:26:50;;;;;;;;;;;;;;;17.37;55.44;101598.09;5345919;26;1347;-57
2024/04/12 13:29:20;;;;;;;;;;;;;;;16.77;56.95;101606.19;5346748;26;1442;-57
2024/04/12 13:31:50;;;;;;;;;;;;;;;16.52;56.88;101608.56;5347375;26;1371;-58
2024/04/12 13:34:17;;;;;;;;;;;;;;;16.41;56.74;101597.47;5351897;26;1403;-59
2024/04/12 13:36:43;;;;;;;;;;;;;;;16.29;56.83;101593.97;5351976;26;1829;-58
2024/04/12 13:39:13;;;;;;;;;;;;;;;16.17;56.79;101594.09;5352124;26;1500;-58
2024/04/12 13:41:43;;;;;;;;;;;;;;;16.11;56.66;101595.06;5351487;26;1056;-59
2024/04/12 13:44:08;;;;;;;;;;;;;;;15.97;56.72;101610.22;5351080;26;1353;-58
2024/04/12 13:52:02;;;;;;;;;;;;;;;16.83;57.03;101606.25;5351912;26;2599;-59
2024/04/12 13:54:27;;;;;;;;;;;;;;;16.57;57.14;101608.66;5351365;26;1049;-60
2024/04/12 13:56:56;;;;;;;;;;;;;;;16.42;57.16;101615.59;5351645;26;1837;-59
2024/04/12 13:59:24;;;;;;;;;;;;;;;16.35;57.02;101617.66;5351716;26;1221;-59
2024/04/12 14:01:50;;;;;;;;;;;;;;;16.25;56.91;101612.84;5351679;26;1167;-60
2024/04/12 14:04:18;;;;;;;;;;;;;;;16.13;56.81;101611.28;5351563;26;1178;-58
2024/04/12 14:06:46;;;;;;;;;;;;;;;16.00;56.89;101624.25;5351361;26;1077;-59
2024/04/12 14:09:13;;;;;;;;;;;;;;;17.13;56.82;101618.75;5351401;26;1585;-59
2024/04/12 14:11:41;;;;;;;;;;;;;;;17.56;55.71;101603.28;5351980;26;1233;-60